Time;durP1;ratioP1;P1;durP2;ratioP2;P2;SDS_P1;SDS_P2;PMS_P1;PMS_P2;Temp;Humidity;BMP_temperature;BMP_pressure;BME280_temperature;BME280_humidity;BME280_pressure;Samples;Min_cycle;Max_cycle;Signal;HPM_P1;HPM_P2
2024/01/20 00:01:36;;;;;;;9.35;7.75;;;2.90;99.90;;;;;;5055543;28;20490;-61
2024/01/20 00:04:02;;;;;;;8.25;7.15;;;2.80;99.90;;;;;;5055952;28;20032;-62
2024/01/20 00:06:27;;;;;;;9.90;8.07;;;2.90;99.90;;;;;;5055553;28;20087;-62
2024/01/20 00:08:55;;;;;;;7.70;6.38;;;2.80;99.90;;;;;;5055835;28;20025;-61
2024/01/20 00:11:21;;;;;;;7.68;6.82;;;2.80;99.90;;;;;;5055610;28;20027;-62
2024/01/20 00:13:47;;;;;;;8.63;6.82;;;2.80;99.90;;;;;;5055384;28;20383;-61
2024/01/20 00:16:12;;;;;;;7.72;6.65;;;2.80;99.90;;;;;;5055420;28;20426;-63
2024/01/20 00:18:38;;;;;;;8.30;7.20;;;2.80;99.90;;;;;;5055233;28;20383;-61
2024/01/20 00:21:04;;;;;;;8.23;6.57;;;2.80;99.90;;;;;;5055301;28;20399;-60
2024/01/20 00:23:30;;;;;;;6.68;6.03;;;2.70;99.90;;;;;;5055223;28;20021;-62
2024/01/20 00:25:55;;;;;;;9.63;7.35;;;2.70;99.90;;;;;;5055362;28;20025;-60
2024/01/20 00:28:21;;;;;;;6.90;6.18;;;2.70;99.90;;;;;;5055466;28;20509;-64
2024/01/20 00:30:47;;;;;;;13.55;9.27;;;2.60;99.90;;;;;;5054834;28;20027;-61
2024/01/20 00:33:12;;;;;;;10.35;8.13;;;2.60;99.90;;;;;;5055181;28;20028;-61
2024/01/20 00:35:42;;;;;;;7.35;6.43;;;2.60;99.90;;;;;;5054914;28;20025;-63
2024/01/20 00:38:08;;;;;;;8.50;6.78;;;2.60;99.90;;;;;;5054947;28;20036;-61
2024/01/20 00:40:34;;;;;;;5.85;5.10;;;2.60;99.90;;;;;;5055078;28;20021;-63
2024/01/20 00:42:59;;;;;;;7.18;6.05;;;2.60;99.90;;;;;;5054885;28;20364;-61
2024/01/20 00:45:25;;;;;;;8.43;7.05;;;2.70;99.90;;;;;;5054615;28;20025;-62
2024/01/20 00:47:51;;;;;;;8.20;7.22;;;2.70;99.90;;;;;;5054935;28;20021;-61
2024/01/20 00:50:17;;;;;;;7.38;6.32;;;2.70;99.90;;;;;;5054824;28;20483;-63
2024/01/20 00:52:42;;;;;;;6.65;5.90;;;2.70;99.90;;;;;;5054666;28;20064;-62
2024/01/20 00:55:09;;;;;;;8.15;6.30;;;2.70;99.90;;;;;;5054637;28;20083;-62
2024/01/20 00:57:35;;;;;;;12.13;9.38;;;2.70;99.90;;;;;;5054623;28;20025;-62
2024/01/20 01:00:01;;;;;;;13.77;9.90;;;2.70;99.90;;;;;;5054384;28;20021;-62
2024/01/20 01:02:26;;;;;;;11.65;9.70;;;2.70;99.90;;;;;;5054467;28;20025;-61
2024/01/20 01:04:52;;;;;;;13.80;10.18;;;2.70;99.90;;;;;;5054469;28;20369;-63
2024/01/20 01:07:18;;;;;;;16.63;12.43;;;2.70;99.90;;;;;;5054435;28;20029;-62
2024/01/20 01:09:43;;;;;;;23.33;16.95;;;2.80;99.90;;;;;;5054280;28;20103;-64
2024/01/20 01:12:09;;;;;;;16.73;12.75;;;2.80;99.90;;;;;;5053430;28;20021;-61
2024/01/20 01:14:35;;;;;;;20.55;14.65;;;2.80;99.90;;;;;;5054077;28;20025;-61
2024/01/20 01:17:00;;;;;;;15.75;11.10;;;2.80;99.90;;;;;;5054431;28;20055;-61
2024/01/20 01:19:26;;;;;;;11.32;9.05;;;2.70;99.90;;;;;;5053940;28;20052;-62
2024/01/20 01:21:52;;;;;;;13.68;9.98;;;2.60;99.90;;;;;;5054451;28;20475;-62
2024/01/20 01:24:18;;;;;;;15.20;10.90;;;2.60;99.90;;;;;;5054299;28;20025;-63
2024/01/20 01:26:43;;;;;;;13.93;10.23;;;2.60;99.90;;;;;;5054329;28;20032;-61
2024/01/20 01:29:09;;;;;;;10.93;8.52;;;2.50;99.90;;;;;;5053950;28;20017;-62
2024/01/20 01:31:35;;;;;;;15.10;11.50;;;2.60;99.90;;;;;;5054023;28;20057;-62
2024/01/20 01:34:01;;;;;;;13.70;10.18;;;2.60;99.90;;;;;;5053904;28;20028;-63
2024/01/20 01:36:26;;;;;;;15.18;11.50;;;2.60;99.90;;;;;;5054150;28;20029;-63
2024/01/20 01:38:52;;;;;;;15.25;11.73;;;2.70;99.90;;;;;;5053927;28;20024;-63
2024/01/20 01:41:19;;;;;;;14.73;11.68;;;2.80;99.90;;;;;;5053773;28;20057;-60
2024/01/20 01:43:45;;;;;;;13.05;10.05;;;2.80;99.90;;;;;;5053604;28;20031;-61
2024/01/20 01:46:10;;;;;;;12.77;10.02;;;2.80;99.90;;;;;;5053969;28;20112;-61
2024/01/20 01:48:36;;;;;;;13.60;10.00;;;2.90;99.90;;;;;;5053631;28;20108;-64
2024/01/20 01:51:04;;;;;;;13.45;10.35;;;2.80;99.90;;;;;;5053758;28;20025;-62
2024/01/20 01:53:32;;;;;;;9.70;8.15;;;2.80;99.90;;;;;;5053901;28;20422;-61
2024/01/20 01:55:59;;;;;;;8.73;7.82;;;2.80;99.90;;;;;;5052217;28;20124;-63
2024/01/20 01:58:26;;;;;;;7.97;6.15;;;2.80;99.90;;;;;;5053633;28;20021;-63
2024/01/20 02:00:52;;;;;;;7.72;6.18;;;2.80;99.90;;;;;;5053465;28;20471;-61
2024/01/20 02:03:18;;;;;;;8.18;5.68;;;2.80;99.90;;;;;;5053363;28;20032;-63
2024/01/20 02:05:43;;;;;;;7.68;6.70;;;2.80;99.90;;;;;;5053559;28;20025;-64
2024/01/20 02:08:10;;;;;;;8.57;6.75;;;2.80;99.90;;;;;;5053399;28;20081;-63
2024/01/20 08:30:32;;;;;;;38.53;29.38;;;11.90;44.50;;;;;;5070587;28;20894;-60
2024/01/20 08:32:57;;;;;;;37.10;30.77;;;12.80;43.90;;;;;;5070825;28;20056;-62
2024/01/20 08:35:23;;;;;;;75.78;52.40;;;13.80;41.40;;;;;;5070531;28;20056;-62
2024/01/20 08:37:49;;;;;;;74.55;55.92;;;14.60;37.70;;;;;;5070547;28;20070;-60
2024/01/20 08:40:14;;;;;;;53.25;41.60;;;14.20;37.50;;;;;;5070619;28;20059;-62
2024/01/20 08:42:40;;;;;;;62.33;47.03;;;14.80;37.50;;;;;;5070491;28;20021;-64
2024/01/20 08:45:06;;;;;;;52.97;42.83;;;15.60;35.00;;;;;;5070272;28;20107;-62
2024/01/20 08:47:33;;;;;;;51.35;42.38;;;16.20;35.30;;;;;;5070302;28;20025;-62
2024/01/20 08:49:59;;;;;;;55.33;44.83;;;16.70;34.00;;;;;;5070338;28;20024;-62
2024/01/20 08:52:24;;;;;;;48.60;40.88;;;16.90;31.90;;;;;;5070200;28;20035;-64
2024/01/20 08:54:50;;;;;;;67.88;51.03;;;16.70;33.80;;;;;;5070164;28;20021;-61
2024/01/20 08:57:16;;;;;;;59.28;46.35;;;16.70;32.00;;;;;;5070253;28;20478;-63
2024/01/20 08:59:41;;;;;;;52.20;43.10;;;16.00;32.30;;;;;;5070018;28;20028;-61
2024/01/20 09:02:07;;;;;;;71.75;52.33;;;15.70;34.10;;;;;;5070123;28;20071;-62
2024/01/20 09:04:34;;;;;;;61.20;48.97;;;15.70;33.50;;;;;;5070152;28;20016;-63
2024/01/20 09:07:00;;;;;;;72.25;58.20;;;15.80;34.50;;;;;;5069948;28;20474;-65
2024/01/20 09:09:25;;;;;;;63.72;51.88;;;16.30;33.70;;;;;;5069915;28;20025;-63
2024/01/20 09:11:51;;;;;;;56.50;48.30;;;16.30;32.80;;;;;;5069814;28;20021;-63
2024/01/20 09:14:17;;;;;;;46.80;40.33;;;16.10;33.70;;;;;;5069625;28;20074;-64
2024/01/20 09:16:43;;;;;;;36.72;32.55;;;16.40;32.70;;;;;;5069679;28;20031;-61
2024/01/20 09:19:08;;;;;;;39.50;32.92;;;16.60;31.30;;;;;;5069647;28;20021;-62
2024/01/20 09:21:34;;;;;;;36.70;32.65;;;16.00;30.90;;;;;;5069611;28;20506;-61
2024/01/20 09:24:00;;;;;;;33.50;26.98;;;15.00;34.10;;;;;;5069698;28;20025;-63
2024/01/20 09:26:26;;;;;;;23.52;20.67;;;14.50;33.20;;;;;;5069540;28;20052;-63
2024/01/20 09:28:51;;;;;;;15.00;13.40;;;14.40;34.70;;;;;;5069143;28;20163;-62
2024/01/20 09:31:17;;;;;;;10.80;9.50;;;14.40;32.90;;;;;;5069447;28;20033;-64
2024/01/20 09:33:45;;;;;;;10.13;9.13;;;13.80;32.60;;;;;;5069284;28;20123;-63
2024/01/20 09:36:11;;;;;;;9.25;8.32;;;13.40;35.20;;;;;;5069636;28;20033;-64
2024/01/20 09:38:36;;;;;;;8.98;8.02;;;13.40;34.60;;;;;;5069218;28;20490;-62
2024/01/20 09:41:02;;;;;;;8.32;6.82;;;13.50;34.60;;;;;;5060443;28;20025;-64
2024/01/20 09:43:29;;;;;;;7.47;6.78;;;12.80;33.70;;;;;;5055757;28;20493;-65
2024/01/20 09:45:57;;;;;;;7.70;6.57;;;11.90;35.90;;;;;;5055910;28;20021;-64
2024/01/20 09:48:23;;;;;;;6.15;5.57;;;11.40;37.90;;;;;;5055932;28;20029;-63
2024/01/20 09:50:49;;;;;;;6.25;5.65;;;10.90;38.60;;;;;;5055798;28;20070;-64
2024/01/20 09:53:17;;;;;;;4.78;4.38;;;10.50;39.50;;;;;;5055950;28;20414;-64
2024/01/20 09:55:46;;;;;;;4.82;4.38;;;10.20;38.80;;;;;;5056126;28;20021;-64
2024/01/20 09:58:13;;;;;;;5.25;4.45;;;9.70;40.30;;;;;;5054177;28;20439;-61
2024/01/20 10:00:40;;;;;;;4.45;4.05;;;9.40;40.70;;;;;;5055961;28;20021;-61
2024/01/20 10:03:09;;;;;;;3.45;3.15;;;9.20;40.70;;;;;;5055627;28;20497;-63
2024/01/20 10:05:35;;;;;;;3.40;3.10;;;9.10;41.20;;;;;;5055505;28;20415;-64
2024/01/20 10:08:01;;;;;;;3.40;3.10;;;8.70;40.60;;;;;;5055571;28;20017;-61
2024/01/20 10:10:27;;;;;;;5.22;3.17;;;8.60;41.90;;;;;;5055590;28;20052;-64
2024/01/20 10:12:54;;;;;;;5.18;3.55;;;8.60;42.40;;;;;;5055477;28;20048;-63
2024/01/20 10:15:28;;;;;;;4.32;3.80;;;8.60;42.20;;;;;;5055608;28;20024;-63
2024/01/20 10:17:57;;;;;;;8.52;6.32;;;8.50;41.90;;;;;;5055718;28;20116;-62
2024/01/20 10:20:32;;;;;;;6.35;5.10;;;8.50;43.40;;;;;;5055409;28;20032;-64
2024/01/20 10:23:01;;;;;;;6.13;5.20;;;8.40;42.70;;;;;;5055375;28;20029;-63
2024/01/20 10:25:26;;;;;;;5.90;5.15;;;8.50;43.20;;;;;;5055282;28;20100;-63
2024/01/20 10:27:52;;;;;;;5.60;4.95;;;8.90;43.60;;;;;;5055460;28;20159;-63
2024/01/20 10:30:20;;;;;;;4.50;4.10;;;9.30;42.10;;;;;;5054930;28;20048;-63
2024/01/20 10:32:47;;;;;;;4.82;4.10;;;9.20;44.30;;;;;;5055344;28;20037;-63
2024/01/20 10:35:13;;;;;;;4.65;4.20;;;9.00;40.60;;;;;;5055045;28;20028;-64
2024/01/20 10:37:46;;;;;;;4.30;3.90;;;8.90;42.10;;;;;;5055037;28;20051;-63
2024/01/20 10:40:15;;;;;;;4.85;4.35;;;8.80;42.50;;;;;;5054616;28;20120;-61
2024/01/20 10:42:46;;;;;;;8.90;5.78;;;8.70;44.00;;;;;;5054922;28;20021;-63
2024/01/20 10:45:16;;;;;;;7.22;5.45;;;8.50;44.20;;;;;;5054811;28;20029;-61
2024/01/20 10:47:59;;;;;;;7.38;5.95;;;8.10;44.40;;;;;;5054711;28;20068;-61
2024/01/20 10:50:25;;;;;;;5.40;4.72;;;8.20;45.60;;;;;;5054711;28;20053;-62
2024/01/20 10:52:52;;;;;;;6.00;4.90;;;8.60;42.90;;;;;;5053893;28;20057;-63
2024/01/20 10:55:18;;;;;;;5.78;4.80;;;9.00;43.30;;;;;;5054594;28;20494;-61
2024/01/20 10:57:49;;;;;;;4.80;4.20;;;9.50;42.90;;;;;;5054871;28;20108;-64
2024/01/20 11:00:16;;;;;;;5.28;4.72;;;10.10;41.00;;;;;;5054390;28;20104;-62
2024/01/20 11:02:42;;;;;;;7.05;6.25;;;10.50;40.30;;;;;;5054498;28;20031;-64
2024/01/20 11:05:25;;;;;;;10.13;8.68;;;10.90;37.50;;;;;;5054536;28;20148;-61
2024/01/20 11:08:07;;;;;;;9.52;7.72;;;11.10;37.60;;;;;;5054408;28;20036;-65
2024/01/20 11:10:43;;;;;;;8.82;5.80;;;11.40;37.20;;;;;;5054175;28;20108;-64
2024/01/20 11:13:13;;;;;;;6.55;5.35;;;12.00;35.90;;;;;;5054465;28;20021;-64
2024/01/20 11:15:40;;;;;;;5.88;5.28;;;12.30;35.90;;;;;;5054340;28;20047;-61
2024/01/20 11:18:19;;;;;;;7.35;6.10;;;12.00;35.60;;;;;;5054108;28;20013;-62
2024/01/20 11:20:58;;;;;;;7.60;6.60;;;11.60;36.70;;;;;;5054188;28;20486;-63
2024/01/20 11:23:24;;;;;;;10.30;7.80;;;11.10;37.40;;;;;;5053873;28;20032;-61
2024/01/20 11:25:50;;;;;;;8.52;7.50;;;10.80;36.50;;;;;;5054062;28;20025;-62
2024/01/20 11:28:24;;;;;;;8.98;7.45;;;10.20;38.50;;;;;;5053761;28;20028;-62
2024/01/20 11:30:50;;;;;;;6.20;5.60;;;10.00;39.50;;;;;;5053937;28;20036;-64
2024/01/20 11:33:15;;;;;;;6.10;5.35;;;10.20;39.20;;;;;;5054253;28;20035;-60
2024/01/20 11:35:41;;;;;;;5.55;5.05;;;10.30;39.10;;;;;;5054165;28;20028;-62
2024/01/20 11:38:07;;;;;;;6.20;5.63;;;10.30;38.30;;;;;;5053532;28;20441;-62
2024/01/20 11:40:33;;;;;;;6.47;5.47;;;10.60;38.10;;;;;;5053802;28;20029;-62
2024/01/20 11:43:06;;;;;;;5.75;5.05;;;10.70;38.50;;;;;;5053686;28;20028;-63
2024/01/20 11:45:32;;;;;;;8.35;7.38;;;10.90;39.80;;;;;;5053687;28;20021;-63
2024/01/20 11:47:59;;;;;;;7.43;6.25;;;11.00;38.90;;;;;;5053637;28;20074;-64
2024/01/20 11:50:24;;;;;;;7.70;6.25;;;10.80;36.40;;;;;;5053638;28;20032;-61
2024/01/20 11:52:50;;;;;;;6.13;5.53;;;10.30;39.00;;;;;;5053371;28;20024;-65
2024/01/20 11:55:16;;;;;;;5.40;4.90;;;10.30;39.70;;;;;;5053661;28;20047;-63
2024/01/20 11:57:42;;;;;;;5.25;4.72;;;10.30;38.40;;;;;;5053826;28;20079;-63
2024/01/20 12:00:09;;;;;;;5.88;5.00;;;10.40;39.30;;;;;;5053258;28;20043;-64
2024/01/20 12:02:35;;;;;;;5.25;4.72;;;10.50;38.40;;;;;;5053462;28;20111;-60
2024/01/20 12:05:00;;;;;;;4.80;4.10;;;10.40;38.40;;;;;;5053218;28;20427;-64
2024/01/20 12:07:27;;;;;;;5.32;4.90;;;10.30;38.10;;;;;;5053183;28;20021;-63
2024/01/20 12:09:52;;;;;;;4.93;4.40;;;10.00;38.90;;;;;;5053341;28;20040;-62
2024/01/20 12:12:19;;;;;;;4.90;4.40;;;10.00;38.80;;;;;;5053210;28;20029;-63
2024/01/20 12:14:45;;;;;;;4.15;3.70;;;9.70;39.40;;;;;;5053371;28;20025;-62
2024/01/20 12:17:12;;;;;;;4.72;4.13;;;9.40;41.50;;;;;;5053552;28;20082;-64
2024/01/20 12:19:39;;;;;;;4.88;4.38;;;9.10;41.90;;;;;;5053161;28;20033;-63
2024/01/20 12:22:09;;;;;;;4.63;4.15;;;8.80;41.60;;;;;;5053015;28;20044;-61
2024/01/20 12:24:35;;;;;;;4.22;3.83;;;8.70;43.80;;;;;;5053176;28;20040;-63
2024/01/20 12:27:04;;;;;;;4.47;4.05;;;8.70;42.80;;;;;;5053406;28;20029;-63
2024/01/20 12:29:31;;;;;;;5.03;3.90;;;8.90;41.80;;;;;;5052769;28;20041;-63
2024/01/20 12:31:57;;;;;;;3.65;3.30;;;8.90;42.80;;;;;;5053416;28;20359;-64
2024/01/20 12:34:25;;;;;;;3.15;2.85;;;8.70;42.90;;;;;;5053078;28;20025;-64
2024/01/20 12:36:55;;;;;;;5.38;3.78;;;8.50;42.70;;;;;;5052879;28;20036;-64
2024/01/20 12:39:22;;;;;;;3.75;3.42;;;8.40;43.10;;;;;;5052998;28;20067;-63
2024/01/20 12:41:48;;;;;;;4.45;4.07;;;8.10;43.30;;;;;;5053119;28;20029;-62
2024/01/20 12:44:14;;;;;;;3.95;3.55;;;8.00;44.30;;;;;;5053032;28;20101;-60
2024/01/20 12:46:40;;;;;;;5.38;4.13;;;7.90;43.80;;;;;;5053165;28;20435;-64
2024/01/20 12:49:06;;;;;;;4.32;3.92;;;7.90;44.50;;;;;;5052908;28;20360;-64
2024/01/20 12:51:32;;;;;;;10.02;7.53;;;8.00;44.60;;;;;;5052699;28;20033;-61
2024/01/20 12:53:58;;;;;;;4.65;3.50;;;7.90;44.80;;;;;;5052859;28;20025;-60
2024/01/20 12:56:23;;;;;;;3.72;3.25;;;7.80;45.40;;;;;;5052863;28;20078;-62
2024/01/20 12:58:49;;;;;;;4.32;3.53;;;7.50;46.30;;;;;;5053116;28;20127;-65
2024/01/20 13:01:16;;;;;;;3.17;2.75;;;7.50;46.50;;;;;;5052773;28;20493;-62
2024/01/20 13:03:43;;;;;;;3.10;2.70;;;7.40;47.10;;;;;;5051615;28;20433;-61
2024/01/20 13:06:08;;;;;;;2.70;2.17;;;7.40;47.00;;;;;;5052672;28;20060;-62
2024/01/20 13:08:34;;;;;;;2.55;2.20;;;7.50;46.90;;;;;;5052741;28;20035;-63
2024/01/20 13:11:00;;;;;;;3.28;2.60;;;7.90;46.60;;;;;;5052994;28;20079;-63
2024/01/20 13:13:26;;;;;;;2.70;2.50;;;8.20;47.30;;;;;;5052763;28;20033;-60
2024/01/20 13:15:51;;;;;;;3.17;2.83;;;8.20;46.20;;;;;;5054083;28;20103;-64
2024/01/20 13:18:17;;;;;;;3.60;3.13;;;8.20;45.80;;;;;;5056439;28;20049;-62
2024/01/20 13:20:43;;;;;;;3.97;2.90;;;7.90;45.00;;;;;;5056551;28;20415;-63
2024/01/20 13:23:08;;;;;;;4.65;3.45;;;7.70;45.00;;;;;;5056463;28;20033;-63
2024/01/20 13:25:34;;;;;;;5.18;3.38;;;7.50;45.60;;;;;;5056344;28;20056;-64
2024/01/20 13:28:00;;;;;;;4.75;3.33;;;7.60;45.30;;;;;;5056310;28;20021;-61
2024/01/20 13:30:26;;;;;;;3.65;3.22;;;7.40;45.50;;;;;;5056052;28;20037;-63
2024/01/20 13:32:52;;;;;;;5.05;3.47;;;7.20;45.70;;;;;;5056205;28;20522;-61
2024/01/20 13:35:18;;;;;;;3.83;3.42;;;7.20;45.50;;;;;;5056509;28;20053;-60
2024/01/20 13:37:44;;;;;;;4.22;3.58;;;7.20;46.10;;;;;;5056147;28;20360;-62
2024/01/20 13:40:10;;;;;;;3.83;3.42;;;7.20;46.00;;;;;;5055883;28;20021;-64
2024/01/20 13:42:36;;;;;;;3.90;2.97;;;7.00;45.00;;;;;;5056060;28;20029;-62
2024/01/20 13:45:03;;;;;;;3.15;2.47;;;6.90;44.10;;;;;;5056455;28;20025;-60
2024/01/20 13:47:28;;;;;;;2.90;2.60;;;6.70;44.40;;;;;;5056126;28;20021;-63
2024/01/20 13:49:54;;;;;;;2.88;2.60;;;6.70;44.80;;;;;;5056001;28;20439;-62
2024/01/20 13:52:20;;;;;;;3.80;2.45;;;6.60;44.20;;;;;;5055968;28;20375;-65
2024/01/20 13:54:46;;;;;;;2.45;2.25;;;6.60;44.20;;;;;;5055716;28;20024;-63
2024/01/20 13:57:12;;;;;;;3.35;2.25;;;6.70;45.20;;;;;;5055747;28;20055;-62
2024/01/20 13:59:37;;;;;;;2.38;2.13;;;6.70;46.20;;;;;;5055812;28;20074;-63
2024/01/20 14:02:03;;;;;;;2.05;1.80;;;6.90;45.10;;;;;;5055786;28;20028;-63
2024/01/20 14:04:29;;;;;;;4.72;3.65;;;6.90;44.70;;;;;;5055421;28;20029;-63
2024/01/20 14:06:57;;;;;;;4.80;3.80;;;7.00;45.20;;;;;;5055640;28;20382;-60
2024/01/20 14:09:23;;;;;;;3.92;3.53;;;7.00;45.50;;;;;;5055830;28;20033;-64
2024/01/20 14:11:49;;;;;;;4.32;3.92;;;7.00;46.10;;;;;;5055477;28;20017;-64
2024/01/20 14:14:14;;;;;;;4.40;3.70;;;7.20;47.10;;;;;;5055568;28;20021;-61
2024/01/20 14:16:40;;;;;;;3.40;3.10;;;7.30;45.60;;;;;;5055568;28;20104;-63
2024/01/20 14:19:07;;;;;;;2.97;2.58;;;7.60;45.20;;;;;;5055035;28;20025;-61
2024/01/20 14:21:33;;;;;;;2.75;2.55;;;7.90;44.60;;;;;;5055435;28;20130;-62
2024/01/20 14:23:59;;;;;;;2.83;2.63;;;8.00;44.70;;;;;;5055578;28;20031;-61
2024/01/20 14:26:24;;;;;;;2.67;1.90;;;8.10;41.90;;;;;;5055351;28;20025;-60
2024/01/20 14:28:50;;;;;;;2.25;1.90;;;8.10;40.90;;;;;;5055058;28;20486;-63
2024/01/20 14:31:16;;;;;;;1.50;1.40;;;8.10;40.70;;;;;;5055455;28;20025;-63
2024/01/20 14:33:42;;;;;;;1.75;1.65;;;8.20;41.30;;;;;;5054901;28;20086;-62
2024/01/20 14:36:08;;;;;;;1.75;1.30;;;8.20;41.00;;;;;;5055201;28;20127;-62
2024/01/20 14:38:34;;;;;;;1.40;1.20;;;8.20;41.30;;;;;;5055036;28;20028;-64
2024/01/20 14:41:00;;;;;;;1.33;1.10;;;8.10;41.40;;;;;;5055023;28;20021;-62
2024/01/20 14:43:25;;;;;;;2.15;1.83;;;7.90;42.30;;;;;;5054859;28;20375;-64
2024/01/20 14:45:51;;;;;;;5.18;4.32;;;7.70;41.10;;;;;;5054900;28;20057;-63
2024/01/20 14:48:17;;;;;;;15.57;12.00;;;7.30;42.00;;;;;;5054639;28;20501;-61
2024/01/20 14:50:43;;;;;;;37.40;30.67;;;6.70;45.00;;;;;;5054705;28;20032;-62
2024/01/20 14:53:09;;;;;;;46.33;38.28;;;6.10;49.50;;;;;;5054771;28;20387;-60
2024/01/20 14:55:35;;;;;;;70.50;60.35;;;5.90;50.80;;;;;;5054658;28;20025;-62
2024/01/20 14:58:02;;;;;;;43.83;37.85;;;5.60;52.80;;;;;;5054533;28;20079;-63
2024/01/20 15:00:28;;;;;;;32.42;25.48;;;5.10;55.60;;;;;;5054501;28;20077;-61
2024/01/20 15:02:53;;;;;;;15.60;13.48;;;4.60;60.00;;;;;;5054310;28;20060;-61
2024/01/20 15:05:19;;;;;;;17.30;15.35;;;4.30;61.20;;;;;;5054431;28;20530;-62
2024/01/20 15:07:45;;;;;;;27.75;21.85;;;4.00;66.60;;;;;;5054506;28;20017;-63
2024/01/20 15:10:10;;;;;;;33.20;26.23;;;3.80;71.90;;;;;;5054694;28;20021;-65
2024/01/20 15:12:36;;;;;;;35.25;26.20;;;3.50;78.10;;;;;;5054603;28;20463;-64
2024/01/20 15:15:01;;;;;;;41.17;28.55;;;3.20;81.60;;;;;;5054554;28;20071;-62
2024/01/20 15:17:28;;;;;;;40.65;28.60;;;2.90;86.10;;;;;;5054034;28;20021;-62
2024/01/20 15:19:54;;;;;;;36.63;27.23;;;2.70;89.70;;;;;;5054184;28;20025;-60
2024/01/20 15:22:20;;;;;;;36.88;27.27;;;2.60;90.80;;;;;;5054108;28;20108;-62
2024/01/20 15:24:45;;;;;;;44.08;32.35;;;2.50;91.40;;;;;;5054107;28;20024;-62
2024/01/20 15:27:11;;;;;;;21.42;18.15;;;2.30;92.70;;;;;;5054133;28;20509;-62
2024/01/20 15:29:37;;;;;;;21.98;17.40;;;2.10;92.80;;;;;;5053733;28;20041;-60
2024/01/20 15:32:04;;;;;;;28.85;24.50;;;1.90;94.70;;;;;;5054057;28;20036;-64
2024/01/20 15:34:30;;;;;;;32.22;25.98;;;1.80;95.60;;;;;;5053935;28;20025;-63
2024/01/20 15:36:56;;;;;;;36.95;26.45;;;1.70;96.80;;;;;;5053779;28;20112;-65
2024/01/20 15:39:21;;;;;;;48.92;32.58;;;1.70;97.00;;;;;;5053165;28;20096;-63
2024/01/20 15:41:47;;;;;;;39.90;26.02;;;1.50;97.30;;;;;;5053769;28;20021;-60
2024/01/20 15:44:13;;;;;;;31.58;21.55;;;1.30;98.20;;;;;;5053520;28;20028;-62
2024/01/20 15:46:39;;;;;;;33.92;23.40;;;1.10;98.60;;;;;;5053821;28;20430;-61
2024/01/20 15:49:04;;;;;;;39.67;26.30;;;1.00;99.30;;;;;;5053791;28;20025;-64
2024/01/20 15:51:30;;;;;;;42.40;26.33;;;1.00;99.50;;;;;;5053704;28;20024;-63
2024/01/20 15:53:56;;;;;;;60.25;33.20;;;1.00;99.60;;;;;;5053537;28;20035;-64
2024/01/20 15:56:22;;;;;;;35.95;22.55;;;0.90;99.60;;;;;;5053634;28;20025;-64
2024/01/20 15:58:48;;;;;;;44.30;27.40;;;0.90;99.70;;;;;;5053275;28;20079;-61
2024/01/20 16:01:14;;;;;;;38.90;26.63;;;0.80;99.70;;;;;;5053421;28;20048;-62
2024/01/20 16:03:40;;;;;;;37.53;25.08;;;0.80;99.90;;;;;;5053494;28;20061;-61
2024/01/20 16:06:08;;;;;;;37.22;25.13;;;0.70;99.90;;;;;;5053364;28;20028;-65
2024/01/20 16:08:34;;;;;;;30.05;21.33;;;0.90;99.90;;;;;;5053335;28;20071;-61
2024/01/20 16:10:59;;;;;;;48.10;34.70;;;0.90;99.90;;;;;;5053327;28;20025;-62
2024/01/20 16:13:25;;;;;;;49.17;36.75;;;0.80;99.90;;;;;;5053130;28;20096;-64
2024/01/20 16:15:50;;;;;;;55.08;38.72;;;0.80;99.90;;;;;;5053253;28;20027;-62
2024/01/20 16:18:16;;;;;;;90.93;63.33;;;0.70;99.90;;;;;;5053397;28;20021;-62
2024/01/20 16:20:42;;;;;;;86.70;58.40;;;0.70;99.90;;;;;;5053164;28;20103;-61
2024/01/20 16:23:09;;;;;;;107.97;71.43;;;0.60;99.90;;;;;;5053512;28;20391;-64
2024/01/20 16:25:35;;;;;;;138.57;100.18;;;0.60;99.90;;;;;;5053197;28;20032;-64
2024/01/20 16:28:00;;;;;;;136.15;98.75;;;0.60;99.90;;;;;;5053091;28;20025;-63
2024/01/20 16:30:26;;;;;;;118.10;81.18;;;0.60;99.90;;;;;;5052903;28;20505;-62
2024/01/20 16:32:52;;;;;;;123.32;83.15;;;0.60;99.90;;;;;;5053047;28;20029;-64
2024/01/20 16:35:18;;;;;;;114.32;75.40;;;0.60;99.90;;;;;;5053210;28;20436;-61
2024/01/20 16:37:44;;;;;;;86.53;57.90;;;0.90;99.90;;;;;;5053136;28;20107;-63
2024/01/20 16:40:09;;;;;;;79.95;53.58;;;1.10;98.50;;;;;;5052902;28;20029;-64
2024/01/20 16:42:35;;;;;;;90.47;59.40;;;1.20;97.60;;;;;;5052781;28;20039;-64
2024/01/20 16:45:01;;;;;;;213.63;133.43;;;1.10;98.20;;;;;;5052928;28;20122;-64
2024/01/20 16:47:26;;;;;;;148.82;95.50;;;1.00;98.50;;;;;;5052874;28;20018;-61
2024/01/20 16:49:52;;;;;;;173.18;116.05;;;0.80;98.90;;;;;;5052954;28;20033;-62
2024/01/20 16:52:18;;;;;;;185.10;129.48;;;0.80;99.20;;;;;;5057188;28;20363;-61
2024/01/20 16:54:43;;;;;;;197.15;132.05;;;0.70;99.30;;;;;;5056941;28;20043;-61
2024/01/20 16:57:10;;;;;;;97.95;62.20;;;0.60;99.90;;;;;;5056703;28;20031;-62
2024/01/20 16:59:36;;;;;;;105.22;68.03;;;0.50;99.90;;;;;;5056896;28;20036;-64
2024/01/20 17:02:03;;;;;;;87.95;58.85;;;0.40;99.90;;;;;;5056880;28;20025;-61
2024/01/20 17:04:30;;;;;;;96.07;60.35;;;0.50;99.90;;;;;;5056674;28;20021;-62
2024/01/20 17:06:56;;;;;;;105.63;69.32;;;0.60;99.70;;;;;;5056663;28;20033;-61
2024/01/20 17:09:22;;;;;;;82.72;54.55;;;0.70;98.60;;;;;;5056937;28;20024;-63
2024/01/20 17:11:48;;;;;;;95.28;62.28;;;0.80;98.50;;;;;;5056619;28;20025;-62
2024/01/20 17:14:17;;;;;;;116.70;75.85;;;0.90;98.20;;;;;;5056870;28;20378;-61
2024/01/20 17:16:44;;;;;;;123.25;78.25;;;0.90;98.50;;;;;;5056494;28;20025;-62
2024/01/20 17:19:10;;;;;;;106.93;67.78;;;0.80;98.70;;;;;;5056617;28;20080;-63
2024/01/20 17:21:36;;;;;;;80.85;51.30;;;0.60;98.60;;;;;;5056500;28;20069;-62
2024/01/20 17:24:02;;;;;;;76.13;48.17;;;0.60;98.90;;;;;;5056337;28;20028;-60
2024/01/20 17:26:29;;;;;;;79.72;48.28;;;0.70;98.70;;;;;;5056080;28;20013;-64
2024/01/20 17:28:58;;;;;;;70.60;45.08;;;0.80;98.30;;;;;;5056148;28;20049;-65
2024/01/20 17:31:32;;;;;;;61.63;41.25;;;0.90;98.00;;;;;;5056613;28;20383;-60
2024/01/20 17:33:59;;;;;;;59.15;38.38;;;0.90;97.20;;;;;;5056198;28;20063;-62
2024/01/20 17:36:25;;;;;;;60.42;38.58;;;1.00;97.10;;;;;;5056184;28;20018;-61
2024/01/20 17:38:51;;;;;;;54.38;36.50;;;1.10;96.60;;;;;;5056066;28;20388;-64
2024/01/20 17:41:17;;;;;;;44.63;31.30;;;1.20;96.10;;;;;;5055812;28;20025;-62
2024/01/20 17:43:43;;;;;;;39.75;28.65;;;1.30;95.80;;;;;;5056039;28;20032;-62
2024/01/20 17:46:10;;;;;;;43.45;30.00;;;1.30;95.60;;;;;;5056136;28;20406;-64
2024/01/20 17:48:35;;;;;;;43.92;30.98;;;1.40;95.00;;;;;;5056143;28;20390;-61
2024/01/20 17:51:01;;;;;;;39.58;27.17;;;1.40;94.70;;;;;;5056200;28;20029;-63
2024/01/20 17:53:33;;;;;;;41.03;27.85;;;1.50;93.80;;;;;;5055919;28;20573;-61
2024/01/20 17:55:59;;;;;;;47.75;32.45;;;1.50;93.30;;;;;;5055535;28;20083;-63
2024/01/20 17:58:25;;;;;;;40.50;26.98;;;1.50;92.40;;;;;;5056013;28;20048;-63
2024/01/20 18:00:51;;;;;;;42.05;27.92;;;1.40;92.90;;;;;;5055490;28;20028;-62
2024/01/20 18:03:16;;;;;;;40.45;25.92;;;1.40;93.10;;;;;;5055522;28;20421;-63
2024/01/20 18:05:42;;;;;;;36.53;26.17;;;1.40;93.30;;;;;;5055715;28;20021;-65
2024/01/20 18:08:08;;;;;;;38.13;25.77;;;1.40;93.10;;;;;;5055663;28;20025;-61
2024/01/20 18:10:34;;;;;;;41.75;28.65;;;1.40;92.90;;;;;;5055576;28;20037;-64
2024/01/20 18:13:05;;;;;;;45.50;30.85;;;1.30;92.60;;;;;;5055592;28;20032;-61
2024/01/20 18:15:31;;;;;;;54.67;36.17;;;1.30;92.40;;;;;;5055743;28;20103;-62
2024/01/20 18:17:56;;;;;;;59.67;39.28;;;1.30;92.70;;;;;;5055302;28;20029;-62
2024/01/20 18:20:23;;;;;;;62.70;42.95;;;1.20;92.30;;;;;;5053998;28;20025;-62
2024/01/20 18:22:49;;;;;;;75.60;51.85;;;1.20;92.60;;;;;;5055346;28;20028;-62
2024/01/20 18:25:15;;;;;;;58.78;40.20;;;1.10;93.30;;;;;;5054958;28;20025;-60
2024/01/20 18:27:41;;;;;;;66.40;44.88;;;0.90;93.60;;;;;;5055243;28;20033;-61
2024/01/20 18:30:09;;;;;;;59.17;41.88;;;0.90;93.40;;;;;;5055001;28;20098;-61
2024/01/20 18:32:35;;;;;;;49.17;31.02;;;0.90;93.30;;;;;;5055141;28;20033;-62
2024/01/20 18:35:02;;;;;;;43.15;29.85;;;0.70;93.40;;;;;;5055055;28;20029;-62
2024/01/20 18:37:27;;;;;;;41.70;28.80;;;0.60;94.10;;;;;;5055345;28;20108;-64
2024/01/20 18:39:53;;;;;;;35.92;24.55;;;0.30;94.40;;;;;;5054807;28;20116;-61
2024/01/20 18:42:19;;;;;;;34.78;22.02;;;0.10;96.00;;;;;;5054826;28;20445;-62
2024/01/20 18:44:47;;;;;;;79.07;52.70;;;0.20;96.10;;;;;;5054923;28;20356;-60
2024/01/20 18:47:14;;;;;;;47.22;32.47;;;0.30;95.90;;;;;;5055166;28;20029;-64
2024/01/20 18:49:40;;;;;;;44.75;30.35;;;0.40;96.00;;;;;;5055057;28;20024;-62
2024/01/20 18:52:05;;;;;;;62.50;45.00;;;0.50;96.00;;;;;;5055296;28;20528;-61
2024/01/20 18:54:31;;;;;;;53.83;40.72;;;0.60;95.20;;;;;;5054827;28;20029;-60
2024/01/20 18:56:57;;;;;;;59.97;41.55;;;0.30;95.80;;;;;;5054629;28;20056;-61
2024/01/20 18:59:23;;;;;;;41.47;29.40;;;0.20;96.20;;;;;;5054646;28;20103;-63